Coker Creek, TN (37314)

5:38 PM EDT on August 29, 2015 (GMT -0400)
Notchey Creek - Low | | Change Station
CLOSE
Current Station
Personal Weather Station
Location: Madisonville, TN
Elevation: 1007 ft
Nearby Weather Stations

Elev 1007 ft 35.47 °N, 84.37 °W | Updated 3 minutes ago

Partly Cloudy
Partly Cloudy
82.2 °F
Feels Like 83 °F
N
5.4
Wind Variable Wind from North
Gusts 10.7 mph

Today
High -- | Low -- °F
--% Chance of Precip.
Yesterday
High -- | Low -- °F
Precip. -- in
7:07 AM 8:08 PM
Full, 100% visible
Pressure 30.12 in
Visibility 10.0 miles
Clouds Clear
Heat Index 83 °F
Dew Point 62 °F
Humidity 51%
Rainfall 0.00 in
Snow Depth Not available.
UV 3 out of 12
Pollen 8.90 out of 12
Air Quality Not available.
Flu Activity Not available.
METAR KMMI 292135Z AUTO 14004KT 10SM CLR 29/18 A3012 RMK
Pressure 30.12 in
Visibility 10.0 miles
Clouds Clear
Heat Index 83 °F
Dew Point 62 °F
Humidity 51%
Rainfall 0.00 in
Snow Depth Not available.
UV 3 out of 12
Pollen 8.90 out of 12
Air Quality Not available.
Flu Activity Not available.
METAR KMMI 292135Z AUTO 14004KT 10SM CLR 29/18 A3012 RMK

10-Day Weather Forecast

×

Almanac

Astronomy

Aug. 29, 2015 Rise Set
Actual Time
Civil Twilight
Nautical Twilight
Astronomical Twilight
Moon
Length of Visible Light
Length of Day
Tomorrow will be .
, % of the Moon is Illuminated

Today's Extremes

State Highs State Lows

Community

WunderPhotos

Upload Photos

1,850,799 photos uploaded!

WunderBlogs® & News

Nearby

Air Quality

  Air Quality AQ Index Pollutant
Not available.

Snow Depth

Station Depth Elevation

Earthquake Activity

City Distance Mag. Time & Date
Minimum magnitude displayed is 2.5.

Coastal Water Temperatures

Place Temperature

Stations

Nearby Weather Stations

Station Location Temp. Windchill Dew Point Humidity Wind Precip. Elev Updated Type